Jennings, LA

8:57 PM CST on December 10, 2019 (GMT -0600)
Bellhaven Subdivision | | Change Station
Active Advisory: Wind Advisory

Elev 36 ft 30.23 °N, 92.67 °W | Updated 13 seconds ago

Overcast
Overcast
44.1 °F
Feels Like 38 °F
N
11
Wind Variable Wind from NE
Gusts 12.0 mph

Today
High -- | Low -- °F
--% Chance of Precip.
Yesterday
High -- | Low -- °F
Precip. -- in
Pressure 30.28 in
Visibility 10.0 miles
Clouds Overcast 1000 ft
Windchill 38 °F
Dew Point 42 °F
Humidity 94%
Rainfall 0.00 in
Snow Depth Not available.
6:56 AM 5:10 PM
Waxing Gibbous, 99% visible
METAR K3R7 110235Z AUTO 02015G23KT 10SM OVC010 07/05 A3028 RMK AO2 T00660052
Pressure 30.28 in
Visibility 10.0 miles
Clouds Overcast 1000 ft
Windchill 38 °F
Dew Point 42 °F
Humidity 94%
Rainfall 0.00 in
Snow Depth Not available.
6:56 AM 5:10 PM
Waxing Gibbous, 99% visible
METAR K3R7 110235Z AUTO 02015G23KT 10SM OVC010 07/05 A3028 RMK AO2 T00660052

Get Your Daily Forecast Email!

Thanks for signing up!

Be on the lookout for a verification email in your inbox.

You'll start receiving severe weather alerts in your inbox..

×

10-Day Weather Forecast

Almanac

Astronomy

Dec. 10, 2019 Rise Set
Actual Time
Civil Twilight
Nautical Twilight
Astronomical Twilight
Moon
Length of Visible Light
Length of Day
Tomorrow will be .
, % of the Moon is Illuminated

Today's Extremes

State Highs State Lows

Community

WunderPhotos

Category 6

Welcome to Category 6. This is the collective home for Weather Underground's featured writeups by Dr. Jeff Masters (right), Bob Henson (left), Chris Burt, and other regular contributors.

Nearby

Air Quality

  Air Quality AQ Index Pollutant
Not available.

Snow Depth

Station Depth Elevation

Earthquake Activity

City Distance Mag. Time & Date
Minimum magnitude displayed is 2.5.

Coastal Water Temperatures

Place Temperature

Stations

Nearby Weather Stations

Station Location Temp. Windchill Dew Point Humidity Wind Precip. Elev Updated Type
                   

Watches & Warnings

Wind Advisory
Issued: 3:30 PM CST Dec. 10, 2019 – National Weather Service

... Wind Advisory remains in effect until 9 PM CST this evening...

* what... northeast winds 15 to 25 mph with gusts up to 35 mph.

* Where... portions of south central Louisiana, southwest
Louisiana and southeast Texas.

* When... until 9 PM CST this evening.

* Impacts... gusty winds could blow around unsecured objects.
Tree limbs could be blown down and a few power outages may
result.

Precautionary/preparedness actions...

Use extra caution when driving, especially if operating a high
profile vehicle. Secure outdoor objects.